createdAt,value
2022-12-14T00:01:54.104Z,15.57
2022-12-14T00:04:20.491Z,16.81
2022-12-14T00:06:46.869Z,16.15
2022-12-14T00:09:13.326Z,17.54
2022-12-14T00:11:40.028Z,19.16
2022-12-14T00:14:06.430Z,17.94
2022-12-14T00:16:33.813Z,18.26
2022-12-14T00:19:00.869Z,17.34
2022-12-14T00:21:27.505Z,17.03
2022-12-14T00:23:54.502Z,18.58
2022-12-14T00:26:22.412Z,20.63
2022-12-14T00:28:49.578Z,21.01
2022-12-14T00:31:16.024Z,22.37
2022-12-14T00:33:42.421Z,23.17
2022-12-14T00:36:09.495Z,24.36
2022-12-14T00:38:36.412Z,25.73
2022-12-14T00:41:02.841Z,26.06
2022-12-14T00:43:29.271Z,25.19
2022-12-14T00:45:55.748Z,25.20
2022-12-14T00:48:22.836Z,24.13
2022-12-14T00:50:49.889Z,24.52
2022-12-14T00:53:16.746Z,26.14
2022-12-14T00:55:44.511Z,26.60
2022-12-14T00:58:17.422Z,26.80
2022-12-14T01:00:47.273Z,27.03
2022-12-14T01:03:13.695Z,26.46
2022-12-14T01:05:40.224Z,25.89
2022-12-14T01:08:06.849Z,23.87
2022-12-14T01:10:33.328Z,23.47
2022-12-14T01:12:59.706Z,25.29
2022-12-14T01:15:26.070Z,26.68
2022-12-14T01:17:52.685Z,27.38
2022-12-14T01:20:19.217Z,27.10
2022-12-14T01:22:45.821Z,27.61
2022-12-14T01:25:12.197Z,27.80
2022-12-14T01:27:38.550Z,29.07
2022-12-14T01:30:05.269Z,30.06
2022-12-14T01:32:31.788Z,30.50
2022-12-14T01:34:58.137Z,30.32
2022-12-14T01:37:24.528Z,30.25
2022-12-14T01:39:50.868Z,30.73
2022-12-14T01:42:17.249Z,30.00
2022-12-14T01:44:43.997Z,27.72
2022-12-14T01:47:29.570Z,27.00
2022-12-14T01:50:22.755Z,26.48
2022-12-14T01:52:49.521Z,25.80
2022-12-14T01:55:20.929Z,26.58
2022-12-14T01:57:51.225Z,26.52
2022-12-14T02:00:18.020Z,25.25
2022-12-14T02:02:48.212Z,24.68
2022-12-14T02:05:14.736Z,23.90
2022-12-14T02:07:41.118Z,25.29
2022-12-14T02:10:08.059Z,26.09
2022-12-14T02:12:40.354Z,26.77
2022-12-14T02:15:07.078Z,27.86
2022-12-14T02:17:33.431Z,29.37
2022-12-14T02:19:59.837Z,28.69
2022-12-14T02:22:51.139Z,27.81
2022-12-14T02:25:31.743Z,27.42
2022-12-14T02:28:09.301Z,27.19
2022-12-14T02:30:37.688Z,27.07
2022-12-14T02:33:16.177Z,27.08
2022-12-14T02:35:44.213Z,27.55
2022-12-14T02:38:27.471Z,24.86
2022-12-14T02:41:12.657Z,21.84
2022-12-14T02:43:50.910Z,21.80
2022-12-14T02:46:32.873Z,22.57
2022-12-14T02:48:59.219Z,22.75
2022-12-14T02:51:55.784Z,23.58
2022-12-14T02:54:38.670Z,25.31
2022-12-14T02:57:26.485Z,25.89
2022-12-14T02:59:55.082Z,27.20
2022-12-14T03:02:21.565Z,27.04
2022-12-14T03:04:48.851Z,27.17
2022-12-14T03:07:33.669Z,27.09
2022-12-14T03:10:01.678Z,28.02
2022-12-14T03:12:28.057Z,28.29
2022-12-14T03:14:54.422Z,28.38
2022-12-14T03:17:23.533Z,27.94
2022-12-14T03:19:57.669Z,29.15
2022-12-14T03:22:26.250Z,30.79
2022-12-14T03:25:01.543Z,30.86
2022-12-14T03:27:38.875Z,30.83
2022-12-14T03:30:07.578Z,30.31
2022-12-14T03:32:34.683Z,31.08
2022-12-14T03:35:11.697Z,32.63
2022-12-14T03:37:39.812Z,33.32
2022-12-14T03:40:07.758Z,34.39
2022-12-14T03:42:59.157Z,32.23
2022-12-14T03:45:30.867Z,34.36
2022-12-14T03:48:13.743Z,35.67
2022-12-14T03:50:44.614Z,37.68
2022-12-14T03:53:20.729Z,37.74
2022-12-14T03:56:20.699Z,35.77
2022-12-14T03:58:57.414Z,37.39
2022-12-14T04:01:36.123Z,38.52
2022-12-14T04:04:07.058Z,39.98
2022-12-14T04:06:37.734Z,41.21
2022-12-14T04:09:09.810Z,43.55
2022-12-14T04:11:57.785Z,43.33
2022-12-14T04:14:46.719Z,43.03
2022-12-14T04:17:33.914Z,43.63
2022-12-14T04:20:17.194Z,44.83
2022-12-14T04:22:46.414Z,45.83
2022-12-14T04:25:41.124Z,45.93
2022-12-14T04:28:33.521Z,46.60
2022-12-14T04:31:01.641Z,47.26
2022-12-14T04:33:46.584Z,48.52
2022-12-14T04:36:24.901Z,51.70
2022-12-14T04:38:54.809Z,52.21
2022-12-14T04:41:23.803Z,51.90
2022-12-14T04:43:50.600Z,51.82
2022-12-14T04:46:18.284Z,50.82
2022-12-14T04:48:57.535Z,52.04
2022-12-14T04:51:48.837Z,51.12
2022-12-14T04:54:50.677Z,49.68
2022-12-14T04:57:31.409Z,51.32
2022-12-14T04:59:57.855Z,53.84
2022-12-14T05:02:47.847Z,56.92
2022-12-14T05:05:15.129Z,58.82
2022-12-14T05:07:44.398Z,58.59
2022-12-14T05:10:20.337Z,60.20
2022-12-14T05:12:51.110Z,60.38
2022-12-14T05:15:19.772Z,61.32
2022-12-14T05:17:46.104Z,62.48
2022-12-14T05:20:20.452Z,62.29
2022-12-14T05:22:46.858Z,60.72
2022-12-14T05:25:13.443Z,62.01
2022-12-14T05:27:39.854Z,61.58
2022-12-14T05:30:06.923Z,61.59
2022-12-14T05:32:33.390Z,61.06
2022-12-14T05:34:59.771Z,62.69
2022-12-14T05:37:26.106Z,63.23
2022-12-14T05:39:52.466Z,62.99
2022-12-14T05:42:18.851Z,64.05
2022-12-14T05:44:45.224Z,63.61
2022-12-14T05:47:11.615Z,64.15
2022-12-14T05:49:37.982Z,64.71
2022-12-14T05:52:04.572Z,63.39
2022-12-14T05:54:30.978Z,63.77
2022-12-14T05:56:57.378Z,64.59
2022-12-14T05:59:23.819Z,64.98
2022-12-14T06:01:50.816Z,64.22
2022-12-14T06:04:17.779Z,63.10
2022-12-14T06:06:44.284Z,63.52
2022-12-14T06:09:11.276Z,65.81
2022-12-14T06:11:38.617Z,67.48
2022-12-14T06:14:05.458Z,66.90
2022-12-14T06:16:31.919Z,66.35
2022-12-14T06:18:59.791Z,67.68
2022-12-14T06:21:30.891Z,68.05
2022-12-14T06:23:57.482Z,68.99
2022-12-14T06:26:24.192Z,70.71
2022-12-14T06:28:50.595Z,70.50
2022-12-14T06:31:25.093Z,70.33
2022-12-14T06:33:53.110Z,70.63
2022-12-14T06:36:24.426Z,70.00
2022-12-14T06:38:51.327Z,69.77
2022-12-14T06:41:17.722Z,69.19
2022-12-14T06:43:44.116Z,70.70
2022-12-14T06:46:15.483Z,72.41
2022-12-14T06:48:42.582Z,73.94
2022-12-14T06:51:09.040Z,73.93
2022-12-14T06:53:35.632Z,73.12
2022-12-14T06:56:08.945Z,71.94
2022-12-14T06:58:35.516Z,71.23
2022-12-14T07:01:15.948Z,71.76
2022-12-14T07:03:42.651Z,71.70
2022-12-14T07:06:09.156Z,71.88
2022-12-14T07:08:36.520Z,72.37
2022-12-14T07:11:07.270Z,71.95
2022-12-14T07:13:34.001Z,71.26
2022-12-14T07:16:00.656Z,70.34
2022-12-14T07:18:27.494Z,70.33
2022-12-14T07:20:57.152Z,68.96
2022-12-14T07:23:27.908Z,66.77
2022-12-14T07:25:59.636Z,66.57
2022-12-14T07:28:27.332Z,67.69
2022-12-14T07:30:57.459Z,67.78
2022-12-14T07:33:24.400Z,65.80
2022-12-14T07:35:50.965Z,63.27
2022-12-14T07:38:18.102Z,61.77
2022-12-14T07:40:44.772Z,63.37
2022-12-14T07:43:11.153Z,63.72
2022-12-14T07:45:37.827Z,62.78
2022-12-14T07:48:07.031Z,62.45
2022-12-14T07:50:33.379Z,61.69
2022-12-14T07:52:59.782Z,61.15
2022-12-14T07:55:26.155Z,61.25
2022-12-14T07:57:52.527Z,60.65
2022-12-14T08:00:19.123Z,60.46
2022-12-14T08:02:45.570Z,60.59
2022-12-14T08:05:12.966Z,59.33
2022-12-14T08:07:39.413Z,57.79
2022-12-14T08:10:06.289Z,56.25
2022-12-14T08:12:32.717Z,51.85
2022-12-14T08:14:59.080Z,46.51
2022-12-14T08:17:25.419Z,41.95
2022-12-14T08:19:51.899Z,39.58
2022-12-14T08:22:18.240Z,38.92
2022-12-14T08:24:44.617Z,38.12
2022-12-14T08:27:16.128Z,35.67
2022-12-14T08:29:42.614Z,35.05
2022-12-14T08:32:08.976Z,35.33
2022-12-14T08:34:35.308Z,33.98
2022-12-14T08:37:01.656Z,33.38
2022-12-14T08:39:28.036Z,33.27
2022-12-14T08:41:54.407Z,31.39
2022-12-14T08:44:20.839Z,31.09
2022-12-14T08:46:47.777Z,31.48
2022-12-14T08:49:14.373Z,31.58
2022-12-14T08:51:40.773Z,30.58
2022-12-14T08:54:07.136Z,29.77
2022-12-14T08:56:33.501Z,26.78
2022-12-14T08:58:59.868Z,23.95
2022-12-14T09:01:32.990Z,20.87
2022-12-14T09:04:04.954Z,17.15
2022-12-14T09:06:32.955Z,12.56
2022-12-14T09:08:59.376Z,11.01
2022-12-14T09:11:25.715Z,6.33
2022-12-14T09:13:55.561Z,5.88
2022-12-14T09:16:22.445Z,6.51
2022-12-14T09:18:48.898Z,1.10
2022-12-14T09:21:15.372Z,0.00
2022-12-14T09:23:41.891Z,0.00
2022-12-14T09:26:09.932Z,0.00
2022-12-14T09:28:37.325Z,0.00
2022-12-14T09:31:05.700Z,0.00
2022-12-14T09:33:32.542Z,0.00
2022-12-14T09:36:02.876Z,0.00
2022-12-14T09:38:30.924Z,0.00
2022-12-14T09:40:58.585Z,0.00
2022-12-14T09:43:37.942Z,0.00
2022-12-14T09:46:21.803Z,0.00
2022-12-14T09:48:49.074Z,0.00
2022-12-14T09:51:16.583Z,0.00
2022-12-14T09:53:43.321Z,0.00
2022-12-14T09:56:13.268Z,0.00
2022-12-14T09:58:39.612Z,0.00
2022-12-14T10:01:24.365Z,0.00
2022-12-14T10:03:53.676Z,0.00
2022-12-14T10:06:27.756Z,0.00
2022-12-14T10:09:15.729Z,0.00
2022-12-14T10:12:03.617Z,0.00
2022-12-14T10:14:49.896Z,0.00
2022-12-14T10:17:26.105Z,0.00
2022-12-14T10:19:54.097Z,0.00
2022-12-14T10:22:42.366Z,0.00
2022-12-14T10:25:11.940Z,0.00
2022-12-14T10:28:09.397Z,0.00
2022-12-14T10:30:25.027Z,0.00
2022-12-14T10:33:03.362Z,0.00
2022-12-14T10:35:53.283Z,0.00
2022-12-14T10:38:33.058Z,0.00
2022-12-14T10:41:08.601Z,0.00
2022-12-14T10:43:39.022Z,0.00
2022-12-14T10:46:14.887Z,0.00
2022-12-14T10:49:27.014Z,0.00
2022-12-14T10:52:05.377Z,0.00
2022-12-14T10:54:33.307Z,0.00
2022-12-14T10:56:59.923Z,0.00
2022-12-14T10:59:38.822Z,0.00
2022-12-14T11:02:16.196Z,0.00
2022-12-14T11:04:52.381Z,0.00
2022-12-14T11:07:21.119Z,0.00
2022-12-14T11:09:47.500Z,0.00
2022-12-14T11:12:13.925Z,0.00
2022-12-14T11:14:53.435Z,0.00
2022-12-14T11:17:29.675Z,0.00
2022-12-14T11:20:16.723Z,0.00
2022-12-14T11:22:57.366Z,0.00
2022-12-14T11:25:42.832Z,0.00
2022-12-14T11:28:21.783Z,0.00
2022-12-14T11:31:08.752Z,0.00
2022-12-14T11:33:39.289Z,0.00
2022-12-14T11:36:09.819Z,0.00
2022-12-14T11:38:36.257Z,0.00
2022-12-14T11:41:08.943Z,0.00
2022-12-14T11:43:41.097Z,0.00
2022-12-14T11:46:07.808Z,0.00
2022-12-14T11:48:36.800Z,0.00
2022-12-14T11:51:11.389Z,0.00
2022-12-14T11:53:37.842Z,0.00
2022-12-14T11:56:06.038Z,0.00
2022-12-14T11:58:37.370Z,0.00
2022-12-14T12:01:05.655Z,0.00
2022-12-14T12:03:41.965Z,0.00
2022-12-14T12:06:13.054Z,0.00
2022-12-14T12:08:40.697Z,0.00
2022-12-14T12:11:18.172Z,0.00
2022-12-14T12:13:45.939Z,0.00
2022-12-14T12:16:18.353Z,0.00
2022-12-14T12:19:12.220Z,0.00
2022-12-14T12:21:43.075Z,0.00
2022-12-14T12:24:22.919Z,0.00
2022-12-14T12:26:53.264Z,0.00
2022-12-14T12:29:21.582Z,0.00
2022-12-14T12:32:01.415Z,0.00
2022-12-14T12:34:31.889Z,0.00
2022-12-14T12:37:25.140Z,0.00
2022-12-14T12:39:50.485Z,0.00
2022-12-14T12:42:26.807Z,0.00
2022-12-14T12:45:09.248Z,0.00
2022-12-14T12:47:47.131Z,0.00
2022-12-14T12:50:16.645Z,0.00
2022-12-14T12:53:04.340Z,0.00
2022-12-14T12:55:34.340Z,0.00
2022-12-14T12:58:01.317Z,0.00
2022-12-14T13:00:27.833Z,0.00
2022-12-14T13:02:54.546Z,0.00
2022-12-14T13:05:45.691Z,0.00
2022-12-14T13:08:14.954Z,0.00
2022-12-14T13:10:50.511Z,0.00
2022-12-14T13:13:29.682Z,0.00
2022-12-14T13:16:29.720Z,0.00
2022-12-14T13:21:49.918Z,0.00
2022-12-14T13:24:18.038Z,0.00
2022-12-14T13:27:25.294Z,0.00
2022-12-14T13:30:29.352Z,0.00
2022-12-14T13:33:01.937Z,0.00
2022-12-14T13:35:47.320Z,0.00
2022-12-14T13:38:42.274Z,0.00
2022-12-14T13:41:26.793Z,0.00
2022-12-14T13:43:53.209Z,0.00
2022-12-14T13:46:21.971Z,0.00
2022-12-14T13:48:49.041Z,0.00
2022-12-14T13:51:25.099Z,0.00
2022-12-14T13:53:56.927Z,0.00
2022-12-14T13:56:33.200Z,0.00
2022-12-14T13:59:00.078Z,0.00
2022-12-14T14:01:48.516Z,0.00
2022-12-14T14:04:29.614Z,0.00
2022-12-14T14:07:15.324Z,0.00
2022-12-14T14:09:54.874Z,0.00
2022-12-14T14:12:30.246Z,0.00
2022-12-14T14:15:38.153Z,0.00
2022-12-14T14:18:07.656Z,0.00
2022-12-14T14:20:47.333Z,0.00
2022-12-14T14:23:13.694Z,0.00
2022-12-14T14:25:48.583Z,0.00
2022-12-14T14:28:22.217Z,0.00
2022-12-14T14:30:54.137Z,0.00
2022-12-14T14:33:45.312Z,0.00
2022-12-14T14:36:32.936Z,0.00
2022-12-14T14:39:01.112Z,0.00
2022-12-14T14:41:30.166Z,0.00
2022-12-14T14:43:59.219Z,0.00
2022-12-14T14:46:37.262Z,0.00
2022-12-14T14:49:03.785Z,0.00
2022-12-14T14:51:32.805Z,0.00
2022-12-14T14:57:35.048Z,0.00
2022-12-14T15:00:02.253Z,0.00
2022-12-14T15:02:41.810Z,0.00
2022-12-14T15:08:02.279Z,0.00
2022-12-14T15:10:32.636Z,0.00
2022-12-14T15:13:14.879Z,0.00
2022-12-14T15:15:42.989Z,0.00
2022-12-14T15:18:31.390Z,0.00
2022-12-14T15:21:02.326Z,0.00
2022-12-14T15:23:36.807Z,0.00
2022-12-14T15:26:04.447Z,0.00
2022-12-14T15:28:32.006Z,0.00
2022-12-14T15:30:58.458Z,0.00
2022-12-14T15:33:34.777Z,0.00
2022-12-14T15:36:08.561Z,0.00
2022-12-14T15:38:36.614Z,0.00
2022-12-14T15:41:05.064Z,0.00
2022-12-14T15:43:32.143Z,0.00
2022-12-14T15:46:04.119Z,0.00
2022-12-14T15:48:34.055Z,0.00
2022-12-14T15:51:04.537Z,0.17
2022-12-14T15:53:38.160Z,1.43
2022-12-14T15:56:33.403Z,2.85
2022-12-14T15:59:05.261Z,3.69
2022-12-14T16:01:34.767Z,4.30
2022-12-14T16:04:11.917Z,5.88
2022-12-14T16:06:40.581Z,3.61
2022-12-14T16:09:28.716Z,3.83
2022-12-14T16:11:56.448Z,4.84
2022-12-14T16:14:29.180Z,9.63
2022-12-14T16:16:55.691Z,13.01
2022-12-14T16:19:28.687Z,13.64
2022-12-14T16:22:11.384Z,13.72
2022-12-14T16:24:38.117Z,14.11
2022-12-14T16:27:04.684Z,14.56
2022-12-14T16:29:32.264Z,15.90
2022-12-14T16:32:05.563Z,16.44
2022-12-14T16:34:33.354Z,18.95
2022-12-14T16:37:30.931Z,19.75
2022-12-14T16:39:47.672Z,19.19
2022-12-14T16:42:32.822Z,18.17
2022-12-14T16:44:59.233Z,19.60
2022-12-14T16:47:28.474Z,18.96
2022-12-14T16:49:55.795Z,20.06
2022-12-14T16:52:30.628Z,18.79
2022-12-14T16:55:17.116Z,12.80
2022-12-14T16:57:49.241Z,9.61
2022-12-14T17:00:32.388Z,10.32
2022-12-14T17:03:00.531Z,12.02
2022-12-14T17:05:35.500Z,14.98
2022-12-14T17:08:02.109Z,16.50
2022-12-14T17:10:28.639Z,16.95
2022-12-14T17:12:58.895Z,16.59
2022-12-14T17:15:26.170Z,17.27
2022-12-14T17:17:53.659Z,18.45
2022-12-14T17:20:25.945Z,17.39
2022-12-14T17:22:53.477Z,19.55
2022-12-14T17:25:20.009Z,22.07
2022-12-14T17:27:46.519Z,25.78
2022-12-14T17:30:17.809Z,27.99
2022-12-14T17:32:44.399Z,25.95
2022-12-14T17:35:19.081Z,27.22
2022-12-14T17:37:45.607Z,27.76
2022-12-14T17:40:12.253Z,27.69
2022-12-14T17:42:39.692Z,28.44
2022-12-14T17:45:07.121Z,30.34
2022-12-14T17:47:33.507Z,31.97
2022-12-14T17:49:59.901Z,32.72
2022-12-14T17:52:31.654Z,33.00
2022-12-14T17:54:58.704Z,31.95
2022-12-14T17:57:25.462Z,33.16
2022-12-14T18:00:10.424Z,33.19
2022-12-14T18:02:37.062Z,35.83
2022-12-14T18:05:03.859Z,32.01
2022-12-14T18:07:30.221Z,30.96
2022-12-14T18:09:56.615Z,31.68
2022-12-14T18:12:24.303Z,33.91
2022-12-14T18:14:51.314Z,35.80
2022-12-14T18:17:18.667Z,39.88
2022-12-14T18:19:45.051Z,41.78
2022-12-14T18:22:14.310Z,40.55
2022-12-14T18:24:40.723Z,40.07
2022-12-14T18:27:07.387Z,38.63
2022-12-14T18:29:33.836Z,35.13
2022-12-14T18:32:00.336Z,33.46
2022-12-14T18:34:26.794Z,34.03
2022-12-14T18:36:53.215Z,34.35
2022-12-14T18:39:19.795Z,34.94
2022-12-14T18:41:46.205Z,37.05
2022-12-14T18:44:12.605Z,39.33
2022-12-14T18:46:39.543Z,39.58
2022-12-14T18:49:05.965Z,38.43
2022-12-14T18:51:32.380Z,37.50
2022-12-14T18:53:59.816Z,37.99
2022-12-14T18:56:27.998Z,39.82
2022-12-14T18:58:54.381Z,40.18
2022-12-14T19:01:22.590Z,41.13
2022-12-14T19:03:49.328Z,41.10
2022-12-14T19:06:43.437Z,42.01
2022-12-14T19:09:07.460Z,42.74
2022-12-14T19:11:35.750Z,42.87
2022-12-14T19:14:02.181Z,41.09
2022-12-14T19:16:28.739Z,40.11
2022-12-14T19:18:55.197Z,39.31
2022-12-14T19:21:21.713Z,39.28
2022-12-14T19:23:48.085Z,40.86
2022-12-14T19:26:14.448Z,42.22
2022-12-14T19:28:40.980Z,43.53
2022-12-14T19:31:09.700Z,45.46
2022-12-14T19:33:36.321Z,43.54
2022-12-14T19:36:09.309Z,43.53
2022-12-14T19:38:36.229Z,45.43
2022-12-14T19:41:07.569Z,46.54
2022-12-14T19:43:34.898Z,47.09
2022-12-14T19:46:06.181Z,49.20
2022-12-14T19:48:32.597Z,48.88
2022-12-14T19:51:03.084Z,49.72
2022-12-14T19:53:33.744Z,50.22
2022-12-14T19:56:00.662Z,51.35
2022-12-14T19:58:27.800Z,51.41
2022-12-14T20:00:54.559Z,49.19
2022-12-14T20:03:21.267Z,47.91
2022-12-14T20:05:58.620Z,47.93
2022-12-14T20:08:25.951Z,48.39
2022-12-14T20:10:55.301Z,43.47
2022-12-14T20:13:22.482Z,39.53
2022-12-14T20:15:53.170Z,40.08
2022-12-14T20:18:20.098Z,40.75
2022-12-14T20:20:49.469Z,43.38
2022-12-14T20:23:17.621Z,45.91
2022-12-14T20:25:43.990Z,48.68
2022-12-14T20:28:10.353Z,50.78
2022-12-14T20:30:42.402Z,52.48
2022-12-14T20:33:08.822Z,52.14
2022-12-14T20:35:35.166Z,53.90
2022-12-14T20:38:01.551Z,55.03
2022-12-14T20:40:27.908Z,56.92
2022-12-14T20:42:54.308Z,58.21
2022-12-14T20:45:20.683Z,58.85
2022-12-14T20:47:47.030Z,58.15
2022-12-14T20:50:13.388Z,58.37
2022-12-14T20:52:39.775Z,59.54
2022-12-14T20:55:06.292Z,60.98
2022-12-14T20:57:33.194Z,60.88
2022-12-14T20:59:59.662Z,60.84
2022-12-14T21:02:26.193Z,60.20
2022-12-14T21:04:52.715Z,59.50
2022-12-14T21:07:24.252Z,58.30
2022-12-14T21:09:52.332Z,58.32
2022-12-14T21:12:21.551Z,58.69
2022-12-14T21:14:52.088Z,59.85
2022-12-14T21:17:19.884Z,60.07
2022-12-14T21:19:46.298Z,59.37
2022-12-14T21:22:14.316Z,56.98
2022-12-14T21:27:27.854Z,51.41
2022-12-14T21:29:54.283Z,53.38
2022-12-14T21:32:20.747Z,55.02
2022-12-14T21:34:47.259Z,57.37
2022-12-14T21:37:13.737Z,59.07
2022-12-14T21:39:40.097Z,60.56
2022-12-14T21:42:15.705Z,61.91
2022-12-14T21:44:46.500Z,60.23
2022-12-14T21:47:14.962Z,56.84
2022-12-14T21:49:42.308Z,57.63
2022-12-14T21:52:09.770Z,57.44
2022-12-14T21:54:36.231Z,55.26
2022-12-14T21:57:21.336Z,55.13
2022-12-14T21:59:47.698Z,56.48
2022-12-14T22:02:16.376Z,55.11
2022-12-14T22:04:46.758Z,53.04
2022-12-14T22:07:20.062Z,52.95
2022-12-14T22:09:49.674Z,53.26
2022-12-14T22:12:16.930Z,53.96
2022-12-14T22:14:43.291Z,56.27
2022-12-14T22:17:10.799Z,58.88
2022-12-14T22:19:37.152Z,61.51
2022-12-14T22:22:03.564Z,63.56
2022-12-14T22:24:30.085Z,63.86
2022-12-14T22:26:56.716Z,64.97
2022-12-14T22:29:24.015Z,64.92
2022-12-14T22:31:51.309Z,66.82
2022-12-14T22:34:20.472Z,67.94
2022-12-14T22:36:47.614Z,68.36
2022-12-14T22:39:14.625Z,68.64
2022-12-14T22:41:41.083Z,70.24
2022-12-14T22:44:07.459Z,70.50
2022-12-14T22:46:33.904Z,71.30
2022-12-14T22:49:00.482Z,71.45
2022-12-14T22:51:29.048Z,70.14
2022-12-14T22:53:55.754Z,67.36
2022-12-14T22:56:28.204Z,66.73
2022-12-14T22:59:20.436Z,67.66
2022-12-14T23:01:49.673Z,68.57
2022-12-14T23:04:16.981Z,68.05
2022-12-14T23:06:43.414Z,67.30
2022-12-14T23:09:28.544Z,66.41
2022-12-14T23:12:14.220Z,65.49
2022-12-14T23:15:00.200Z,64.11
2022-12-14T23:17:44.913Z,63.09
2022-12-14T23:20:29.816Z,62.42
2022-12-14T23:23:14.627Z,63.23
2022-12-14T23:25:59.668Z,65.08
2022-12-14T23:28:49.884Z,67.05
2022-12-14T23:31:34.998Z,66.54
2022-12-14T23:34:20.085Z,66.48
2022-12-14T23:37:04.957Z,67.36
2022-12-14T23:39:49.646Z,68.14
2022-12-14T23:42:34.405Z,67.34
2022-12-14T23:45:19.352Z,67.87
2022-12-14T23:48:04.238Z,67.44
2022-12-14T23:50:48.857Z,63.93
2022-12-14T23:53:33.998Z,62.09
2022-12-14T23:56:18.696Z,63.16
2022-12-14T23:59:03.723Z,64.40
